createdAt,value
2019-02-18T00:00:44.049Z,100669.73
2019-02-18T00:01:29.346Z,100670.16
2019-02-18T00:02:03.813Z,100666.71
2019-02-18T00:02:38.243Z,100670.50
2019-02-18T00:03:12.861Z,100670.07
2019-02-18T00:03:47.645Z,100670.11
2019-02-18T00:04:22.271Z,100667.55
2019-02-18T00:04:56.885Z,100674.35
2019-02-18T00:05:31.209Z,100662.43
2019-02-18T00:06:05.814Z,100665.84
2019-02-18T00:06:40.185Z,100662.01
2019-02-18T00:07:14.990Z,100672.68
2019-02-18T00:07:49.411Z,100667.89
2019-02-18T00:08:24.608Z,100672.20
2019-02-18T00:08:58.997Z,100665.80
2019-02-18T00:09:33.344Z,100661.57
2019-02-18T00:10:07.807Z,100667.09
2019-02-18T00:10:42.713Z,100662.86
2019-02-18T00:11:17.044Z,100670.55
2019-02-18T00:11:51.446Z,100670.94
2019-02-18T00:12:25.823Z,100669.69
2019-02-18T00:13:00.751Z,100667.98
2019-02-18T00:13:35.366Z,100675.20
2019-02-18T00:14:09.762Z,100676.06
2019-02-18T00:14:44.092Z,100673.96
2019-02-18T00:15:18.483Z,100668.84
2019-02-18T00:15:53.087Z,100667.13
2019-02-18T00:16:27.414Z,100673.12
2019-02-18T00:17:02.077Z,100665.05
2019-02-18T00:17:36.452Z,100665.05
2019-02-18T00:18:11.115Z,100669.31
2019-02-18T00:18:45.474Z,100670.17
2019-02-18T00:19:20.205Z,100677.42
2019-02-18T00:19:54.608Z,100677.42
2019-02-18T00:20:29.480Z,100676.95
2019-02-18T00:21:03.818Z,100669.73
2019-02-18T00:21:38.168Z,100673.58
2019-02-18T00:22:12.566Z,100668.03
2019-02-18T00:22:46.950Z,100668.45
2019-02-18T00:23:21.562Z,100668.45
2019-02-18T00:23:55.905Z,100669.31
2019-02-18T00:24:30.251Z,100675.67
2019-02-18T00:25:04.657Z,100672.25
2019-02-18T00:25:39.261Z,100668.42
2019-02-18T00:26:13.978Z,100667.98
2019-02-18T00:26:48.392Z,100667.56
2019-02-18T00:27:22.741Z,100671.84
2019-02-18T00:27:57.071Z,100668.03
2019-02-18T00:28:31.695Z,100668.89
2019-02-18T00:29:06.304Z,100668.89
2019-02-18T00:29:40.661Z,100664.19
2019-02-18T00:30:15.011Z,100668.03
2019-02-18T00:30:49.364Z,100670.98
2019-02-18T00:31:24.022Z,100668.46
2019-02-18T00:31:58.983Z,100662.87
2019-02-18T00:32:33.320Z,100662.87
2019-02-18T00:33:07.669Z,100659.45
2019-02-18T00:33:42.000Z,100669.27
2019-02-18T00:34:16.704Z,100661.63
2019-02-18T00:34:51.058Z,100669.69
2019-02-18T00:35:25.413Z,100667.98
2019-02-18T00:36:00.011Z,100661.58
2019-02-18T00:36:34.624Z,100667.60
2019-02-18T00:37:09.249Z,100670.13
2019-02-18T00:37:43.693Z,100669.70
2019-02-18T00:38:18.144Z,100666.75
2019-02-18T00:38:52.536Z,100662.91
2019-02-18T00:39:26.897Z,100662.91
2019-02-18T00:40:01.219Z,100672.69
2019-02-18T00:40:35.637Z,100665.05
2019-02-18T00:41:10.295Z,100665.05
2019-02-18T00:41:44.653Z,100665.89
2019-02-18T00:42:19.085Z,100670.17
2019-02-18T00:42:53.706Z,100666.80
2019-02-18T00:43:28.048Z,100665.91
2019-02-18T00:44:02.662Z,100667.18
2019-02-18T00:44:37.105Z,100664.19
2019-02-18T00:45:11.628Z,100667.60
2019-02-18T00:45:46.121Z,100668.03
2019-02-18T00:46:20.764Z,100667.60
2019-02-18T00:46:55.158Z,100659.50
2019-02-18T00:47:29.499Z,100665.04
2019-02-18T00:48:03.839Z,100664.19
2019-02-18T00:48:38.453Z,100668.84
2019-02-18T00:49:13.118Z,100669.27
2019-02-18T00:49:47.736Z,100669.70
2019-02-18T00:50:22.116Z,100665.84
2019-02-18T00:50:56.880Z,100667.14
2019-02-18T00:51:31.330Z,100669.73
2019-02-18T00:52:05.719Z,100665.47
2019-02-18T00:52:40.603Z,100664.66
2019-02-18T00:53:15.019Z,100664.66
2019-02-18T00:53:49.658Z,100663.34
2019-02-18T00:54:24.263Z,100671.45
2019-02-18T00:54:59.186Z,100666.37
2019-02-18T00:55:33.546Z,100664.23
2019-02-18T00:56:07.887Z,100670.21
2019-02-18T00:56:42.234Z,100662.10
2019-02-18T00:57:16.677Z,100669.39
2019-02-18T00:57:51.061Z,100663.84
2019-02-18T00:58:25.412Z,100663.84
2019-02-18T00:59:00.053Z,100665.13
2019-02-18T00:59:34.391Z,100665.98
2019-02-18T01:00:09.953Z,100663.84
2019-02-18T01:00:44.376Z,100665.17
2019-02-18T01:01:18.746Z,100662.17
2019-02-18T01:01:53.116Z,100665.13
2019-02-18T01:02:27.493Z,100663.00
2019-02-18T01:03:01.837Z,100665.17
2019-02-18T01:03:36.194Z,100662.18
2019-02-18T01:04:10.824Z,100662.18
2019-02-18T01:04:45.158Z,100665.17
2019-02-18T01:05:19.763Z,100663.07
2019-02-18T01:05:54.213Z,100658.38
2019-02-18T01:06:28.565Z,100662.64
2019-02-18T01:07:02.959Z,100666.48
2019-02-18T01:07:37.301Z,100667.34
2019-02-18T01:08:11.922Z,100657.56
2019-02-18T01:08:46.324Z,100668.20
2019-02-18T01:09:20.978Z,100665.64
2019-02-18T01:09:55.535Z,100662.25
2019-02-18T01:10:29.871Z,100658.80
2019-02-18T01:11:04.204Z,100664.78
2019-02-18T01:11:38.818Z,100660.94
2019-02-18T01:12:13.206Z,100662.22
2019-02-18T01:12:47.567Z,100667.77
2019-02-18T01:13:22.465Z,100664.35
2019-02-18T01:13:57.092Z,100663.11
2019-02-18T01:14:31.450Z,100663.11
2019-02-18T01:15:06.555Z,100666.48
2019-02-18T01:15:40.902Z,100663.96
2019-02-18T01:16:15.620Z,100671.64
2019-02-18T01:16:49.967Z,100663.50
2019-02-18T01:17:24.373Z,100660.13
2019-02-18T01:17:58.957Z,100663.11
2019-02-18T01:18:33.331Z,100663.96
2019-02-18T01:19:07.955Z,100662.71
2019-02-18T01:19:42.306Z,100665.27
2019-02-18T01:20:16.720Z,100666.52
2019-02-18T01:20:51.382Z,100663.53
2019-02-18T01:21:25.718Z,100668.23
2019-02-18T01:22:00.145Z,100663.53
2019-02-18T01:22:34.765Z,100661.01
2019-02-18T01:23:09.129Z,100669.11
2019-02-18T01:23:43.486Z,100661.04
2019-02-18T01:24:17.873Z,100668.69
2019-02-18T01:24:52.244Z,100672.98
2019-02-18T01:25:26.963Z,100664.45
2019-02-18T01:26:01.310Z,100664.91
2019-02-18T01:26:36.374Z,100664.91
2019-02-18T01:27:11.028Z,100664.05
2019-02-18T01:27:45.717Z,100664.05
2019-02-18T01:28:20.070Z,100662.77
2019-02-18T01:28:54.677Z,100665.33
2019-02-18T01:29:29.012Z,100666.61
2019-02-18T01:30:03.448Z,100664.91
2019-02-18T01:30:37.796Z,100666.21
2019-02-18T01:31:12.131Z,100664.48
2019-02-18T01:31:46.816Z,100672.16
2019-02-18T01:32:21.212Z,100670.02
2019-02-18T01:32:55.614Z,100670.05
2019-02-18T01:33:29.966Z,100667.06
2019-02-18T01:34:04.288Z,100664.50
2019-02-18T01:34:38.943Z,100668.34
2019-02-18T01:35:13.430Z,100667.48
2019-02-18T01:35:47.819Z,100668.37
2019-02-18T01:36:23.146Z,100668.77
2019-02-18T01:36:57.629Z,100668.77
2019-02-18T01:37:32.267Z,100664.92
2019-02-18T01:38:06.596Z,100668.37
2019-02-18T01:38:40.932Z,100670.07
2019-02-18T01:39:15.539Z,100663.67
2019-02-18T01:39:49.890Z,100670.07
2019-02-18T01:40:24.812Z,100661.96
2019-02-18T01:40:59.150Z,100668.36
2019-02-18T01:41:33.491Z,100671.78
2019-02-18T01:42:07.895Z,100666.66
2019-02-18T01:42:42.518Z,100663.67
2019-02-18T01:43:16.935Z,100662.39
2019-02-18T01:43:51.566Z,100667.09
2019-02-18T01:44:25.914Z,100665.81
2019-02-18T01:45:00.846Z,100665.81
2019-02-18T01:45:35.281Z,100665.38
2019-02-18T01:46:09.927Z,100662.82
2019-02-18T01:46:44.547Z,100662.80
2019-02-18T01:47:18.925Z,100661.55
2019-02-18T01:47:53.313Z,100659.41
2019-02-18T01:48:27.922Z,100661.54
2019-02-18T01:49:02.272Z,100664.09
2019-02-18T01:49:36.860Z,100661.14
2019-02-18T01:50:13.389Z,100658.98
2019-02-18T01:50:47.841Z,100655.14
2019-02-18T01:51:22.536Z,100660.26
2019-02-18T01:51:56.902Z,100659.43
2019-02-18T01:52:31.256Z,100654.31
2019-02-18T01:53:05.928Z,100659.43
2019-02-18T01:53:40.833Z,100655.59
2019-02-18T01:54:15.188Z,100662.42
2019-02-18T01:54:49.613Z,100656.44
2019-02-18T01:55:23.973Z,100657.29
2019-02-18T01:55:58.334Z,100655.19
2019-02-18T01:56:32.971Z,100656.04
2019-02-18T01:57:07.367Z,100652.17
2019-02-18T01:57:42.057Z,100655.16
2019-02-18T01:58:16.722Z,100652.16
2019-02-18T01:58:51.083Z,100653.41
2019-02-18T01:59:26.044Z,100653.02
2019-02-18T02:00:00.374Z,100655.55
2019-02-18T02:00:34.975Z,100653.44
2019-02-18T02:01:09.316Z,100653.41
2019-02-18T02:01:43.665Z,100656.00
2019-02-18T02:02:18.093Z,100656.86
2019-02-18T02:02:52.500Z,100653.02
2019-02-18T02:03:26.853Z,100655.97
2019-02-18T02:04:01.799Z,100656.39
2019-02-18T02:04:36.142Z,100655.54
2019-02-18T02:05:11.853Z,100650.02
2019-02-18T02:05:46.547Z,100658.98
2019-02-18T02:06:21.215Z,100651.31
2019-02-18T02:06:55.650Z,100657.67
2019-02-18T02:07:30.258Z,100653.44
2019-02-18T02:08:04.736Z,100655.58
2019-02-18T02:08:39.084Z,100655.97
2019-02-18T02:09:15.122Z,100651.70
2019-02-18T02:09:49.490Z,100649.57
2019-02-18T02:10:23.846Z,100653.86
2019-02-18T02:10:58.201Z,100652.58
2019-02-18T02:11:32.549Z,100659.41
2019-02-18T02:12:06.884Z,100656.84
2019-02-18T02:12:41.224Z,100656.84
2019-02-18T02:13:29.348Z,100654.71
2019-02-18T02:14:03.694Z,100647.46
2019-02-18T02:14:38.039Z,100650.02
2019-02-18T02:15:15.788Z,100652.19
2019-02-18T02:15:50.181Z,100645.36
2019-02-18T02:16:24.822Z,100644.50
2019-02-18T02:16:59.421Z,100644.05
2019-02-18T02:17:33.758Z,100651.33
2019-02-18T02:18:08.420Z,100649.63
2019-02-18T02:18:42.765Z,100649.20
2019-02-18T02:19:17.141Z,100648.34
2019-02-18T02:19:51.520Z,100643.22
2019-02-18T02:20:25.854Z,100652.17
2019-02-18T02:21:00.462Z,100646.66
2019-02-18T02:21:34.792Z,100653.86
2019-02-18T02:22:09.162Z,100645.78
2019-02-18T02:22:43.750Z,100647.47
2019-02-18T02:23:18.159Z,100647.46
2019-02-18T02:23:52.610Z,100647.46
2019-02-18T02:24:26.950Z,100639.39
2019-02-18T02:25:01.378Z,100644.47
2019-02-18T02:25:36.054Z,100640.67
2019-02-18T02:26:10.711Z,100643.22
2019-02-18T02:26:45.294Z,100646.20
2019-02-18T02:27:19.653Z,100640.66
2019-02-18T02:27:54.267Z,100644.48
2019-02-18T02:28:28.907Z,100637.23
2019-02-18T02:29:03.265Z,100644.91
2019-02-18T02:29:37.597Z,100647.06
2019-02-18T02:30:12.474Z,100637.66
2019-02-18T02:30:46.872Z,100637.23
2019-02-18T02:31:21.804Z,100638.94
2019-02-18T02:31:56.468Z,100642.77
2019-02-18T02:32:31.080Z,100636.38
2019-02-18T02:33:05.738Z,100638.94
2019-02-18T02:33:40.086Z,100641.95
2019-02-18T02:34:15.062Z,100632.12
2019-02-18T02:34:49.703Z,100644.92
2019-02-18T02:35:24.056Z,100635.56
2019-02-18T02:35:59.000Z,100637.70
2019-02-18T02:36:33.461Z,100641.54
2019-02-18T02:37:07.814Z,100638.53
2019-02-18T02:37:42.411Z,100635.12
2019-02-18T02:38:17.163Z,100637.68
2019-02-18T02:38:51.571Z,100627.42
2019-02-18T02:39:25.972Z,100635.12
2019-02-18T02:40:00.516Z,100633.87
2019-02-18T02:40:34.815Z,100631.28
2019-02-18T02:41:09.418Z,100630.85
2019-02-18T02:41:44.008Z,100638.13
2019-02-18T02:42:18.700Z,100632.12
2019-02-18T02:42:53.072Z,100624.88
2019-02-18T02:43:27.458Z,100628.32
2019-02-18T02:44:02.054Z,100636.00
2019-02-18T02:44:36.402Z,100630.88
2019-02-18T02:45:11.280Z,100634.27
2019-02-18T02:45:45.659Z,100632.16
2019-02-18T02:46:20.078Z,100633.87
2019-02-18T02:46:54.693Z,100638.13
2019-02-18T02:47:29.014Z,100641.94
2019-02-18T02:48:03.594Z,100630.83
2019-02-18T02:48:37.981Z,100641.47
2019-02-18T02:49:12.567Z,100644.88
2019-02-18T02:49:47.263Z,100638.08
2019-02-18T02:50:21.671Z,100638.51
2019-02-18T02:50:56.016Z,100637.66
2019-02-18T02:51:30.646Z,100643.20
2019-02-18T02:52:05.073Z,100638.51
2019-02-18T02:52:39.444Z,100637.69
2019-02-18T02:53:13.858Z,100639.81
2019-02-18T02:53:48.517Z,100639.38
2019-02-18T02:54:22.867Z,100632.56
2019-02-18T02:54:57.439Z,100635.57
2019-02-18T02:55:31.778Z,100631.73
2019-02-18T02:56:06.137Z,100632.58
2019-02-18T02:56:40.727Z,100636.42
2019-02-18T02:57:15.091Z,100628.32
2019-02-18T02:57:49.761Z,100630.02
2019-02-18T02:58:24.111Z,100632.16
2019-02-18T02:58:58.483Z,100627.89
2019-02-18T02:59:32.880Z,100625.76
2019-02-18T03:00:08.451Z,100630.05
2019-02-18T03:00:42.797Z,100625.33
2019-02-18T03:01:17.192Z,100632.61
2019-02-18T03:01:51.568Z,100637.30
2019-02-18T03:02:25.927Z,100625.38
2019-02-18T03:03:00.840Z,100632.17
2019-02-18T03:03:35.206Z,100631.34
2019-02-18T03:04:09.815Z,100631.34
2019-02-18T03:04:44.725Z,100626.66
2019-02-18T03:05:19.388Z,100627.06
2019-02-18T03:05:54.048Z,100632.16
2019-02-18T03:06:28.697Z,100625.33
2019-02-18T03:07:03.423Z,100632.15
2019-02-18T03:07:37.757Z,100626.21
2019-02-18T03:08:19.784Z,100636.87
2019-02-18T03:08:48.242Z,100632.17
2019-02-18T03:09:22.882Z,100636.86
2019-02-18T03:09:57.481Z,100634.76
2019-02-18T03:10:31.830Z,100634.33
2019-02-18T03:11:06.207Z,100635.18
2019-02-18T03:11:40.852Z,100641.55
2019-02-18T03:12:15.221Z,100638.16
2019-02-18T03:12:50.288Z,100637.72
2019-02-18T03:13:24.989Z,100639.42
2019-02-18T03:13:59.331Z,100637.31
2019-02-18T03:14:33.693Z,100643.27
2019-02-18T03:15:08.041Z,100638.56
2019-02-18T03:15:42.387Z,100636.03
2019-02-18T03:16:16.999Z,100637.31
2019-02-18T03:16:51.618Z,100633.48
2019-02-18T03:17:25.973Z,100634.77
2019-02-18T03:18:00.319Z,100632.64
2019-02-18T03:18:34.688Z,100637.75
2019-02-18T03:19:09.062Z,100636.05
2019-02-18T03:19:44.011Z,100636.89
2019-02-18T03:20:18.687Z,100626.66
2019-02-18T03:20:53.118Z,100629.64
2019-02-18T03:21:27.471Z,100631.78
2019-02-18T03:22:02.091Z,100632.64
2019-02-18T03:22:36.427Z,100630.90
2019-02-18T03:23:11.033Z,100628.77
2019-02-18T03:23:45.456Z,100629.21
2019-02-18T03:24:19.799Z,100633.06
2019-02-18T03:25:17.801Z,100629.66
2019-02-18T03:25:53.857Z,100630.91
2019-02-18T03:26:28.468Z,100633.06
2019-02-18T03:27:03.106Z,100632.20
2019-02-18T03:27:37.783Z,100628.38
2019-02-18T03:28:25.840Z,100636.45
2019-02-18T03:29:52.044Z,100635.62
2019-02-18T03:30:36.378Z,100640.73
2019-02-18T03:31:18.728Z,100642.88
2019-02-18T03:31:53.088Z,100641.17
2019-02-18T03:32:28.093Z,100642.03
2019-02-18T03:33:02.775Z,100641.18
2019-02-18T03:33:40.551Z,100646.28
2019-02-18T03:34:43.406Z,100651.84
2019-02-18T03:35:18.166Z,100645.86
2019-02-18T03:35:52.578Z,100642.46
2019-02-18T03:36:26.916Z,100642.04
2019-02-18T03:37:01.276Z,100643.73
2019-02-18T03:37:36.167Z,100643.73
2019-02-18T03:38:10.753Z,100650.13
2019-02-18T03:38:45.374Z,100646.28
2019-02-18T03:39:20.322Z,100649.27
2019-02-18T03:39:54.731Z,100647.13
2019-02-18T03:40:29.594Z,100645.44
2019-02-18T03:41:03.958Z,100647.58
2019-02-18T03:41:40.898Z,100646.29
2019-02-18T03:42:14.366Z,100651.84
2019-02-18T03:42:48.732Z,100652.70
2019-02-18T03:43:23.075Z,100656.97
2019-02-18T03:43:57.481Z,100653.11
2019-02-18T03:44:32.403Z,100657.38
2019-02-18T03:45:06.857Z,100654.40
2019-02-18T03:45:41.573Z,100653.96
2019-02-18T03:46:16.063Z,100653.98
2019-02-18T03:46:51.365Z,100654.83
2019-02-18T03:47:25.691Z,100653.53
2019-02-18T03:48:00.051Z,100652.27
2019-02-18T03:48:34.392Z,100653.53
2019-02-18T03:49:09.296Z,100660.79
2019-02-18T03:49:43.617Z,100656.55
2019-02-18T03:50:18.284Z,100658.22
2019-02-18T03:50:53.164Z,100656.10
2019-02-18T03:51:27.538Z,100652.69
2019-02-18T03:52:01.889Z,100655.25
2019-02-18T03:52:36.234Z,100650.13
2019-02-18T03:53:10.843Z,100656.55
2019-02-18T03:53:45.565Z,100652.28
2019-02-18T03:54:19.980Z,100654.81
2019-02-18T03:54:54.356Z,100652.26
2019-02-18T03:55:28.736Z,100654.38
2019-02-18T03:56:03.043Z,100654.84
2019-02-18T03:56:37.383Z,100659.09
2019-02-18T03:57:12.373Z,100658.23
2019-02-18T03:57:46.727Z,100654.40
2019-02-18T03:58:21.340Z,100653.98
2019-02-18T03:58:55.794Z,100655.25
2019-02-18T03:59:30.211Z,100658.23
2019-02-18T04:00:05.294Z,100652.70
2019-02-18T04:00:39.893Z,100654.41
2019-02-18T04:01:14.278Z,100645.00
2019-02-18T04:01:49.145Z,100653.96
2019-02-18T04:02:23.772Z,100651.83
2019-02-18T04:02:58.312Z,100654.83
2019-02-18T04:03:32.643Z,100652.67
2019-02-18T04:04:07.040Z,100648.86
2019-02-18T04:04:41.380Z,100648.84
2019-02-18T04:05:16.043Z,100651.83
2019-02-18T04:05:50.482Z,100653.55
2019-02-18T04:06:24.861Z,100656.52
2019-02-18T04:06:59.821Z,100653.97
2019-02-18T04:07:34.445Z,100652.26
2019-02-18T04:08:08.837Z,100658.22
2019-02-18T04:08:43.511Z,100659.92
2019-02-18T04:09:18.308Z,100659.51
2019-02-18T04:09:52.672Z,100655.67
2019-02-18T04:10:27.034Z,100651.00
2019-02-18T04:11:01.371Z,100656.53
2019-02-18T04:11:35.691Z,100660.36
2019-02-18T04:12:10.043Z,100658.22
2019-02-18T04:12:44.500Z,100660.36
2019-02-18T04:13:18.889Z,100649.29
2019-02-18T04:13:53.507Z,100657.81
2019-02-18T04:14:27.874Z,100655.67
2019-02-18T04:15:02.505Z,100659.95
2019-02-18T04:15:37.368Z,100651.83
2019-02-18T04:16:11.739Z,100646.72
2019-02-18T04:16:46.365Z,100654.83
2019-02-18T04:17:20.937Z,100656.09
2019-02-18T04:17:55.302Z,100654.81
2019-02-18T04:18:29.678Z,100648.85
2019-02-18T04:19:04.264Z,100657.80
2019-02-18T04:19:38.583Z,100651.84
2019-02-18T04:20:12.925Z,100656.97
2019-02-18T04:20:47.338Z,100661.20
2019-02-18T04:21:22.130Z,100658.23
2019-02-18T04:21:56.477Z,100653.55
2019-02-18T04:22:30.826Z,100654.81
2019-02-18T04:23:05.426Z,100651.83
2019-02-18T04:23:40.314Z,100651.84
2019-02-18T04:24:15.069Z,100653.11
2019-02-18T04:24:49.783Z,100648.00
2019-02-18T04:25:24.370Z,100650.12
2019-02-18T04:25:59.277Z,100656.53
2019-02-18T04:26:33.855Z,100656.52
2019-02-18T04:27:08.453Z,100653.95
2019-02-18T04:27:43.032Z,100646.73
2019-02-18T04:28:18.025Z,100644.60
2019-02-18T04:28:52.654Z,100648.84
2019-02-18T04:29:27.260Z,100648.84
2019-02-18T04:30:01.605Z,100648.86
2019-02-18T04:30:35.935Z,100647.13
2019-02-18T04:31:10.309Z,100652.25
2019-02-18T04:31:44.914Z,100647.16
2019-02-18T04:32:19.283Z,100648.84
2019-02-18T04:32:53.635Z,100653.52
2019-02-18T04:33:28.258Z,100651.84
2019-02-18T04:34:02.918Z,100650.13
2019-02-18T04:34:37.261Z,100648.83
2019-02-18T04:35:11.589Z,100650.98
2019-02-18T04:35:46.317Z,100652.67
2019-02-18T04:36:21.317Z,100653.12
2019-02-18T04:36:55.913Z,100651.83
2019-02-18T04:37:30.277Z,100652.70
2019-02-18T04:38:04.949Z,100647.98
2019-02-18T04:38:39.701Z,100656.50
2019-02-18T04:39:14.414Z,100654.39
2019-02-18T04:39:48.843Z,100651.83
2019-02-18T04:40:23.223Z,100653.12
2019-02-18T04:40:57.637Z,100658.22
2019-02-18T04:41:32.002Z,100653.11
2019-02-18T04:42:06.337Z,100656.52
2019-02-18T04:42:41.063Z,100657.80
2019-02-18T04:43:15.398Z,100653.09
2019-02-18T04:43:50.037Z,100655.23
2019-02-18T04:44:24.384Z,100644.58
2019-02-18T04:44:58.998Z,100651.39
2019-02-18T04:45:33.343Z,100649.70
2019-02-18T04:46:07.782Z,100651.39
2019-02-18T04:46:42.153Z,100644.17
2019-02-18T04:47:17.113Z,100647.16
2019-02-18T04:47:52.031Z,100644.59
2019-02-18T04:48:26.652Z,100639.04
2019-02-18T04:49:00.996Z,100636.91
2019-02-18T04:49:35.352Z,100642.44
2019-02-18T04:50:09.742Z,100640.77
2019-02-18T04:50:44.624Z,100635.23
2019-02-18T04:51:19.124Z,100640.77
2019-02-18T04:51:53.784Z,100644.59
2019-02-18T04:52:28.141Z,100639.05
2019-02-18T04:53:02.735Z,100643.75
2019-02-18T04:53:37.109Z,100637.78
2019-02-18T04:54:11.470Z,100639.91
2019-02-18T04:54:45.938Z,100641.62
2019-02-18T04:55:20.599Z,100648.00
2019-02-18T04:55:55.284Z,100645.00
2019-02-18T04:56:29.633Z,100644.16
2019-02-18T04:57:04.222Z,100638.59
2019-02-18T04:57:38.819Z,100633.93
2019-02-18T04:58:13.161Z,100639.05
2019-02-18T04:58:47.644Z,100643.31
2019-02-18T04:59:22.318Z,100641.59
2019-02-18T04:59:56.996Z,100636.48
2019-02-18T05:00:31.341Z,100638.17
2019-02-18T05:01:05.953Z,100636.47
2019-02-18T05:01:41.178Z,100637.77
2019-02-18T05:02:15.543Z,100636.91
2019-02-18T05:02:49.894Z,100631.79
2019-02-18T05:03:24.699Z,100638.59
2019-02-18T05:03:59.084Z,100636.05
2019-02-18T05:04:33.638Z,100630.95
2019-02-18T05:05:07.993Z,100632.66
2019-02-18T05:05:42.404Z,100633.06
2019-02-18T05:06:17.113Z,100631.80
2019-02-18T05:06:52.102Z,100637.77
2019-02-18T05:07:26.457Z,100631.38
2019-02-18T05:08:01.150Z,100633.50
2019-02-18T05:08:35.498Z,100639.46
2019-02-18T05:09:10.420Z,100629.25
2019-02-18T05:09:44.880Z,100627.13
2019-02-18T05:10:19.505Z,100632.64
2019-02-18T05:10:53.868Z,100631.79
2019-02-18T05:11:28.302Z,100632.23
2019-02-18T05:12:03.001Z,100624.98
2019-02-18T05:12:37.699Z,100631.81
2019-02-18T05:13:12.030Z,100624.14
2019-02-18T05:13:46.421Z,100627.99
2019-02-18T05:14:21.108Z,100630.98
2019-02-18T05:14:55.714Z,100623.73
2019-02-18T05:15:30.577Z,100631.83
2019-02-18T05:16:05.521Z,100630.97
2019-02-18T05:16:40.173Z,100629.27
2019-02-18T05:17:14.823Z,100628.39
2019-02-18T05:17:49.256Z,100620.32
2019-02-18T05:18:23.619Z,100622.43
2019-02-18T05:18:58.236Z,100627.13
2019-02-18T05:19:32.593Z,100620.31
2019-02-18T05:20:07.071Z,100622.44
2019-02-18T05:20:41.413Z,100620.72
2019-02-18T05:21:15.826Z,100624.12
2019-02-18T05:21:50.609Z,100621.98
2019-02-18T05:22:25.428Z,100627.11
2019-02-18T05:22:59.713Z,100618.16
2019-02-18T05:23:34.078Z,100621.58
2019-02-18T05:24:08.434Z,100622.87
2019-02-18T05:24:43.034Z,100623.27
2019-02-18T05:25:17.454Z,100621.13
2019-02-18T05:25:51.806Z,100623.28
2019-02-18T05:26:26.713Z,100625.41
2019-02-18T05:27:01.475Z,100619.47
2019-02-18T05:27:36.106Z,100626.69
2019-02-18T05:28:10.693Z,100625.84
2019-02-18T05:28:45.719Z,100618.59
2019-02-18T05:29:20.121Z,100626.69
2019-02-18T05:29:54.463Z,100621.18
2019-02-18T05:30:29.585Z,100627.56
2019-02-18T05:31:04.294Z,100625.84
2019-02-18T05:31:38.673Z,100627.58
2019-02-18T05:32:13.055Z,100630.54
2019-02-18T05:32:47.454Z,100626.30
2019-02-18T05:33:21.932Z,100625.86
2019-02-18T05:33:56.271Z,100625.01
2019-02-18T05:34:30.616Z,100622.02
2019-02-18T05:35:05.140Z,100627.58
2019-02-18T05:35:39.749Z,100624.56
2019-02-18T05:36:14.117Z,100623.30
2019-02-18T05:36:48.761Z,100622.86
2019-02-18T05:37:23.498Z,100619.03
2019-02-18T05:37:58.087Z,100629.69
2019-02-18T05:38:32.430Z,100625.42
2019-02-18T05:39:17.571Z,100622.84
2019-02-18T05:39:44.341Z,100626.26
2019-02-18T05:40:18.965Z,100631.80
2019-02-18T05:40:53.355Z,100627.99
2019-02-18T05:41:27.712Z,100630.97
2019-02-18T05:42:02.081Z,100627.55
2019-02-18T05:42:36.421Z,100629.27
2019-02-18T05:43:11.029Z,100626.70
2019-02-18T05:43:45.381Z,100630.54
2019-02-18T05:44:19.745Z,100626.67
2019-02-18T05:44:54.105Z,100631.37
2019-02-18T05:45:29.025Z,100631.81
2019-02-18T05:46:03.359Z,100624.56
2019-02-18T05:46:37.707Z,100628.83
2019-02-18T05:47:12.097Z,100635.20
2019-02-18T05:47:46.484Z,100629.69
2019-02-18T05:48:21.090Z,100630.08
2019-02-18T05:48:55.462Z,100631.38
2019-02-18T05:49:29.873Z,100633.08
2019-02-18T05:50:04.319Z,100628.78
2019-02-18T05:50:38.941Z,100635.60
2019-02-18T05:51:13.539Z,100633.92
2019-02-18T05:51:48.159Z,100637.73
2019-02-18T05:52:22.597Z,100639.43
2019-02-18T05:52:57.466Z,100625.38
2019-02-18T05:53:31.905Z,100632.66
2019-02-18T05:54:06.250Z,100629.23
2019-02-18T05:54:40.577Z,100637.31
2019-02-18T05:55:14.973Z,100633.89
2019-02-18T05:55:49.618Z,100636.87
2019-02-18T05:56:24.249Z,100636.91
2019-02-18T05:56:58.652Z,100632.19
2019-02-18T05:57:32.979Z,100639.88
2019-02-18T05:58:07.332Z,100634.75
2019-02-18T05:58:41.939Z,100629.64
2019-02-18T05:59:16.329Z,100625.80
2019-02-18T05:59:51.014Z,100634.31
2019-02-18T06:00:25.646Z,100633.47
2019-02-18T06:00:59.975Z,100628.78
2019-02-18T06:01:34.402Z,100637.31
2019-02-18T06:02:09.042Z,100628.81
2019-02-18T06:02:43.386Z,100632.20
2019-02-18T06:03:17.760Z,100624.96
2019-02-18T06:03:52.351Z,100633.50
2019-02-18T06:04:26.711Z,100621.55
2019-02-18T06:05:01.333Z,100626.70
2019-02-18T06:05:35.772Z,100635.19
2019-02-18T06:06:10.117Z,100633.48
2019-02-18T06:06:44.757Z,100625.38
2019-02-18T06:07:19.330Z,100623.23
2019-02-18T06:07:53.729Z,100633.05
2019-02-18T06:08:28.365Z,100635.59
2019-02-18T06:09:04.021Z,100634.31
2019-02-18T06:09:38.413Z,100629.22
2019-02-18T06:10:14.227Z,100633.47
2019-02-18T06:10:49.725Z,100629.22
2019-02-18T06:11:24.386Z,100637.73
2019-02-18T06:11:59.002Z,100630.06
2019-02-18T06:12:33.978Z,100630.07
2019-02-18T06:13:08.326Z,100634.31
2019-02-18T06:13:42.918Z,100639.84
2019-02-18T06:14:17.579Z,100639.42
2019-02-18T06:14:52.286Z,100633.03
2019-02-18T06:15:27.213Z,100629.63
2019-02-18T06:16:01.587Z,100628.38
2019-02-18T06:16:36.203Z,100637.30
2019-02-18T06:17:10.875Z,100627.48
2019-02-18T06:17:45.564Z,100633.87
2019-02-18T06:18:20.001Z,100633.48
2019-02-18T06:18:55.591Z,100627.50
2019-02-18T06:19:30.239Z,100625.80
2019-02-18T06:20:05.142Z,100627.48
2019-02-18T06:20:39.808Z,100626.20
2019-02-18T06:21:14.173Z,100626.61
2019-02-18T06:21:48.602Z,100631.31
2019-02-18T06:22:23.027Z,100629.16
2019-02-18T06:22:57.685Z,100633.01
2019-02-18T06:23:32.281Z,100633.00
2019-02-18T06:24:06.666Z,100629.18
2019-02-18T06:24:41.326Z,100630.47
2019-02-18T06:25:15.753Z,100635.58
2019-02-18T06:25:50.179Z,100636.86
2019-02-18T06:26:24.652Z,100628.37
2019-02-18T06:26:59.005Z,100640.28
2019-02-18T06:27:33.376Z,100639.89
2019-02-18T06:28:08.013Z,100630.95
2019-02-18T06:28:42.361Z,100638.59
2019-02-18T06:29:16.981Z,100643.70
2019-02-18T06:29:51.648Z,100639.45
2019-02-18T06:30:26.536Z,100646.66
2019-02-18T06:31:01.408Z,100642.00
2019-02-18T06:31:36.060Z,100646.25
2019-02-18T06:32:10.414Z,100643.67
2019-02-18T06:32:44.934Z,100642.81
2019-02-18T06:33:19.962Z,100648.76
2019-02-18T06:33:54.473Z,100647.91
2019-02-18T06:34:29.190Z,100642.80
2019-02-18T06:35:04.169Z,100641.08
2019-02-18T06:35:38.516Z,100649.99
2019-02-18T06:36:13.171Z,100651.28
2019-02-18T06:36:47.556Z,100647.46
2019-02-18T06:37:22.102Z,100644.91